Terminal Aerodrome Forecast
Issued by NWS

Current Version | Previous Version | Text Only | Print | Product List | Glossary On
Versions: 1 2 3 4 5 6 7 8 9 10 11 12 13 14 15 16 17 18 19 20 21 22 23
000
FTUS43 KGRR 250545 AAA
TAFMKG
TAF AMD
KMKG 250545Z 2506/2606 28006KT 6SM BR BKN150
     FM251200 30011KT P6SM FEW250
     FM260000 29005KT P6SM SKC=

USA.gov is the U.S. government's official web portal to all federal, state and local government web resources and services.